createdAt,value
2023-05-10T00:00:47.347Z,1.80
2023-05-10T00:03:16.893Z,2.27
2023-05-10T00:05:44.910Z,1.60
2023-05-10T00:08:12.851Z,1.90
2023-05-10T00:10:41.964Z,2.13
2023-05-10T00:13:10.122Z,1.70
2023-05-10T00:15:38.074Z,1.77
2023-05-10T00:18:06.125Z,1.83
2023-05-10T00:20:35.536Z,1.77
2023-05-10T00:23:03.428Z,1.77
2023-05-10T00:25:31.421Z,1.87
2023-05-10T00:27:59.508Z,1.70
2023-05-10T00:30:27.446Z,2.03
2023-05-10T00:32:55.453Z,1.87
2023-05-10T00:35:23.751Z,1.70
2023-05-10T00:37:53.084Z,1.70
2023-05-10T00:40:21.763Z,2.20
2023-05-10T00:42:49.754Z,1.87
2023-05-10T00:45:17.654Z,1.50
2023-05-10T00:47:45.653Z,1.90
2023-05-10T00:50:14.138Z,1.80
2023-05-10T00:52:42.708Z,1.90
2023-05-10T00:55:12.408Z,1.53
2023-05-10T00:57:40.492Z,1.70
2023-05-10T01:00:09.791Z,1.90
2023-05-10T01:02:37.919Z,2.20
2023-05-10T01:05:07.028Z,1.60
2023-05-10T01:07:35.068Z,1.87
2023-05-10T01:10:03.124Z,1.80
2023-05-10T01:12:32.749Z,1.73
2023-05-10T01:15:00.761Z,1.73
2023-05-10T01:17:28.731Z,2.00
2023-05-10T01:19:56.690Z,2.70
2023-05-10T01:22:41.965Z,2.33
2023-05-10T01:25:29.669Z,1.60
2023-05-10T01:28:42.045Z,1.70
2023-05-10T01:31:19.524Z,1.60
2023-05-10T01:33:51.238Z,1.80
2023-05-10T01:36:27.033Z,1.50
2023-05-10T01:38:58.045Z,1.67
2023-05-10T01:41:28.697Z,1.70
2023-05-10T01:43:59.448Z,2.30
2023-05-10T01:46:30.874Z,1.70
2023-05-10T01:49:01.030Z,1.70
2023-05-10T01:51:31.928Z,1.83
2023-05-10T01:54:04.100Z,1.90
2023-05-10T01:56:32.850Z,2.00
2023-05-10T01:59:04.709Z,1.90
2023-05-10T02:01:35.654Z,1.97
2023-05-10T02:04:14.433Z,1.77
2023-05-10T02:06:42.604Z,1.60
2023-05-10T02:09:10.621Z,2.33
2023-05-10T02:11:39.467Z,1.40
2023-05-10T02:14:08.158Z,1.60
2023-05-10T02:16:36.107Z,1.70
2023-05-10T02:19:04.407Z,2.30
2023-05-10T02:21:33.851Z,1.63
2023-05-10T02:24:02.039Z,1.40
2023-05-10T02:26:29.960Z,1.83
2023-05-10T02:28:57.901Z,1.60
2023-05-10T02:31:25.983Z,1.90
2023-05-10T02:33:53.979Z,1.40
2023-05-10T02:36:22.169Z,1.33
2023-05-10T02:38:51.983Z,2.00
2023-05-10T02:41:19.982Z,1.60
2023-05-10T02:43:48.061Z,1.57
2023-05-10T02:46:16.013Z,2.80
2023-05-10T02:48:43.958Z,1.50
2023-05-10T02:51:12.005Z,1.57
2023-05-10T02:53:40.851Z,1.80
2023-05-10T02:56:14.407Z,1.90
2023-05-10T02:58:42.506Z,1.87
2023-05-10T03:01:11.033Z,1.90
2023-05-10T03:03:39.467Z,1.97
2023-05-10T03:06:07.893Z,1.60
2023-05-10T03:08:35.795Z,2.53
2023-05-10T03:11:28.524Z,2.73
2023-05-10T03:14:01.224Z,1.70
2023-05-10T03:16:31.812Z,1.73
2023-05-10T03:19:06.771Z,1.67
2023-05-10T03:21:34.704Z,2.20
2023-05-10T03:24:07.370Z,2.10
2023-05-10T03:26:36.874Z,1.80
2023-05-10T03:29:04.791Z,1.70
2023-05-10T03:31:32.808Z,1.67
2023-05-10T03:34:00.908Z,1.57
2023-05-10T03:36:29.213Z,1.47
2023-05-10T03:38:57.127Z,2.40
2023-05-10T03:41:26.174Z,1.80
2023-05-10T03:43:55.723Z,1.80
2023-05-10T03:46:23.813Z,1.90
2023-05-10T03:48:51.857Z,1.67
2023-05-10T03:51:19.849Z,1.40
2023-05-10T03:53:47.799Z,1.60
2023-05-10T03:56:15.761Z,1.90
2023-05-10T03:58:43.698Z,1.57
2023-05-10T04:01:13.087Z,2.00
2023-05-10T04:03:41.361Z,2.20
2023-05-10T04:06:12.488Z,1.77
2023-05-10T04:08:40.393Z,1.53
2023-05-10T04:11:08.949Z,1.50
2023-05-10T04:13:44.080Z,1.90
2023-05-10T04:16:13.373Z,1.83
2023-05-10T04:18:41.657Z,1.80
2023-05-10T04:21:13.995Z,1.63
2023-05-10T04:23:42.009Z,2.07
2023-05-10T04:26:09.934Z,2.50
2023-05-10T04:28:40.655Z,2.13
2023-05-10T04:31:09.422Z,1.60
2023-05-10T04:33:38.737Z,2.03
2023-05-10T04:36:07.570Z,2.23
2023-05-10T04:38:35.619Z,1.83
2023-05-10T04:41:08.259Z,2.30
2023-05-10T04:43:36.366Z,1.97
2023-05-10T04:46:04.335Z,2.00
2023-05-10T04:48:32.372Z,2.50
2023-05-10T04:51:02.502Z,2.30
2023-05-10T04:53:30.638Z,1.87
2023-05-10T04:55:58.644Z,2.00
2023-05-10T04:58:29.400Z,1.90
2023-05-10T05:00:57.363Z,1.73
2023-05-10T05:03:25.413Z,2.20
2023-05-10T05:05:53.489Z,1.90
2023-05-10T05:08:23.822Z,2.33
2023-05-10T05:10:52.216Z,2.20
2023-05-10T05:13:20.284Z,1.70
2023-05-10T05:15:48.503Z,2.13
2023-05-10T05:18:16.480Z,1.97
2023-05-10T05:20:44.419Z,2.20
2023-05-10T05:23:12.520Z,2.20
2023-05-10T05:25:42.734Z,1.97
2023-05-10T05:28:10.650Z,1.77
2023-05-10T05:30:38.650Z,2.40
2023-05-10T05:33:06.671Z,2.13
2023-05-10T05:35:34.565Z,1.90
2023-05-10T05:38:05.484Z,1.90
2023-05-10T05:40:33.592Z,2.40
2023-05-10T05:43:02.802Z,2.00
2023-05-10T05:45:30.761Z,2.00
2023-05-10T05:47:58.716Z,2.20
2023-05-10T05:50:27.168Z,2.17
2023-05-10T05:52:55.116Z,2.13
2023-05-10T05:55:23.213Z,2.03
2023-05-10T05:57:51.185Z,1.80
2023-05-10T06:00:20.701Z,3.53
2023-05-10T06:02:49.026Z,1.67
2023-05-10T06:05:17.302Z,1.83
2023-05-10T06:07:45.486Z,1.87
2023-05-10T06:10:13.427Z,1.93
2023-05-10T06:12:41.517Z,1.73
2023-05-10T06:15:11.155Z,2.07
2023-05-10T06:17:41.216Z,1.60
2023-05-10T06:20:10.588Z,1.80
2023-05-10T06:22:38.556Z,2.10
2023-05-10T06:25:07.366Z,1.97
2023-05-10T06:27:35.427Z,2.07
2023-05-10T06:30:12.510Z,2.10
2023-05-10T06:32:46.200Z,1.77
2023-05-10T06:35:14.278Z,3.10
2023-05-10T06:37:42.172Z,3.07
2023-05-10T06:40:11.259Z,4.00
2023-05-10T06:42:39.295Z,2.47
2023-05-10T06:45:08.328Z,2.33
2023-05-10T06:47:38.822Z,3.00
2023-05-10T06:50:09.634Z,3.33
2023-05-10T06:52:37.617Z,2.57
2023-05-10T06:55:06.395Z,2.50
2023-05-10T06:57:34.385Z,2.50
2023-05-10T07:00:02.554Z,1.90
2023-05-10T07:02:30.629Z,2.10
2023-05-10T07:05:01.661Z,2.00
2023-05-10T07:07:32.407Z,2.07
2023-05-10T07:10:00.553Z,2.97
2023-05-10T07:12:28.608Z,2.13
2023-05-10T07:14:56.614Z,2.10
2023-05-10T07:17:24.767Z,2.23
2023-05-10T07:19:52.762Z,2.57
2023-05-10T07:22:20.726Z,2.10
2023-05-10T07:24:50.172Z,2.20
2023-05-10T07:27:18.112Z,1.80
2023-05-10T07:29:46.096Z,1.93
2023-05-10T07:32:14.105Z,1.90
2023-05-10T07:34:42.279Z,2.40
2023-05-10T07:37:10.226Z,2.40
2023-05-10T07:39:38.452Z,2.40
2023-05-10T07:42:08.229Z,2.00
2023-05-10T07:44:36.226Z,2.30
2023-05-10T07:47:04.375Z,2.20
2023-05-10T07:49:32.309Z,1.90
2023-05-10T07:52:00.221Z,2.13
2023-05-10T07:54:28.197Z,2.07
2023-05-10T07:56:56.242Z,2.20
2023-05-10T07:59:25.646Z,2.20
2023-05-10T08:01:53.584Z,2.00
2023-05-10T08:04:21.549Z,1.90
2023-05-10T08:06:49.671Z,1.90
2023-05-10T08:09:18.787Z,2.93
2023-05-10T08:11:46.726Z,2.30
2023-05-10T08:14:14.625Z,1.83
2023-05-10T08:16:43.929Z,2.20
2023-05-10T08:19:11.883Z,1.80
2023-05-10T08:21:41.549Z,1.77
2023-05-10T08:24:09.686Z,1.90
2023-05-10T08:26:37.785Z,1.63
2023-05-10T08:29:05.843Z,1.83
2023-05-10T08:31:33.920Z,1.47
2023-05-10T08:34:03.233Z,1.90
2023-05-10T08:36:31.116Z,2.10
2023-05-10T08:38:59.141Z,1.73
2023-05-10T08:41:27.745Z,1.83
2023-05-10T08:43:55.866Z,1.80
2023-05-10T08:46:24.362Z,1.60
2023-05-10T08:48:53.116Z,1.93
2023-05-10T08:51:24.792Z,2.23
2023-05-10T08:53:52.750Z,2.03
2023-05-10T08:56:21.350Z,2.07
2023-05-10T08:58:49.921Z,1.80
2023-05-10T09:01:18.009Z,2.20
2023-05-10T09:03:46.112Z,1.80
2023-05-10T09:06:14.112Z,1.80
2023-05-10T09:08:43.848Z,1.70
2023-05-10T09:11:11.836Z,1.70
2023-05-10T09:13:39.870Z,1.90
2023-05-10T09:16:20.358Z,2.10
2023-05-10T09:18:50.591Z,1.77
2023-05-10T09:21:18.973Z,1.60
2023-05-10T09:23:51.057Z,2.20
2023-05-10T09:26:19.290Z,1.80
2023-05-10T09:28:54.310Z,1.87
2023-05-10T09:31:22.293Z,1.53
2023-05-10T09:33:50.745Z,1.73
2023-05-10T09:36:18.893Z,1.90
2023-05-10T09:38:52.763Z,1.60
2023-05-10T09:41:21.182Z,1.83
2023-05-10T09:43:49.166Z,1.77
2023-05-10T09:46:19.945Z,2.30
2023-05-10T09:48:48.955Z,1.90
2023-05-10T09:51:23.175Z,1.70
2023-05-10T09:53:53.348Z,2.00
2023-05-10T09:56:35.471Z,1.70
2023-05-10T09:59:06.424Z,1.73
2023-05-10T10:01:34.455Z,2.47
2023-05-10T10:04:04.656Z,2.20
2023-05-10T10:06:37.880Z,1.93
2023-05-10T10:09:08.150Z,2.80
2023-05-10T10:11:36.903Z,3.13
2023-05-10T10:14:04.807Z,2.83
2023-05-10T10:16:32.928Z,3.40
2023-05-10T10:19:01.085Z,3.50
2023-05-10T10:21:29.113Z,2.90
2023-05-10T10:23:57.068Z,2.67
2023-05-10T10:26:26.438Z,2.90
2023-05-10T10:28:59.445Z,2.57
2023-05-10T10:31:30.006Z,2.70
2023-05-10T10:34:01.920Z,2.50
2023-05-10T10:36:29.837Z,2.70
2023-05-10T10:39:00.625Z,3.40
2023-05-10T10:41:36.926Z,2.70
2023-05-10T10:44:25.221Z,3.23
2023-05-10T10:47:03.562Z,4.23
2023-05-10T10:49:33.953Z,2.97
2023-05-10T10:52:24.224Z,2.87
2023-05-10T10:54:56.622Z,3.47
2023-05-10T10:57:27.490Z,2.77
2023-05-10T11:00:14.134Z,3.07
2023-05-10T11:02:49.794Z,5.10
2023-05-10T11:05:47.838Z,3.23
2023-05-10T11:08:22.893Z,4.30
2023-05-10T11:10:55.601Z,2.70
2023-05-10T11:13:31.812Z,3.23
2023-05-10T11:16:00.102Z,3.23
2023-05-10T11:18:29.503Z,2.60
2023-05-10T11:20:59.247Z,2.90
2023-05-10T11:23:32.348Z,2.60
2023-05-10T11:26:01.297Z,2.90
2023-05-10T11:28:30.592Z,2.50
2023-05-10T11:30:58.614Z,3.10
2023-05-10T11:33:27.097Z,2.60
2023-05-10T11:35:55.206Z,2.37
2023-05-10T11:38:23.142Z,2.43
2023-05-10T11:40:53.105Z,3.30
2023-05-10T11:43:21.008Z,3.30
2023-05-10T11:45:50.338Z,2.73
2023-05-10T11:48:23.259Z,2.60
2023-05-10T11:50:51.297Z,2.40
2023-05-10T11:53:19.185Z,2.83
2023-05-10T11:55:47.117Z,2.43
2023-05-10T11:58:15.160Z,2.50
2023-05-10T12:00:43.232Z,2.60
2023-05-10T12:03:12.778Z,3.50
2023-05-10T12:05:43.047Z,2.87
2023-05-10T12:08:14.896Z,2.10
2023-05-10T12:10:42.925Z,2.67
2023-05-10T12:13:14.166Z,2.37
2023-05-10T12:15:42.198Z,2.77
2023-05-10T12:18:12.565Z,2.67
2023-05-10T12:20:41.199Z,2.37
2023-05-10T12:23:11.028Z,3.33
2023-05-10T12:25:40.198Z,2.50
2023-05-10T12:28:09.137Z,2.70
2023-05-10T12:30:37.857Z,2.60
2023-05-10T12:33:10.617Z,2.70
2023-05-10T12:35:47.710Z,3.00
2023-05-10T12:38:30.658Z,2.60
2023-05-10T12:40:59.696Z,2.60
2023-05-10T12:43:27.918Z,2.30
2023-05-10T12:45:55.987Z,3.53
2023-05-10T12:48:24.136Z,2.40
2023-05-10T12:50:53.609Z,2.20
2023-05-10T12:53:21.546Z,2.77
2023-05-10T12:55:49.516Z,2.77
2023-05-10T12:58:31.335Z,2.53
2023-05-10T13:01:03.599Z,2.60
2023-05-10T13:03:31.645Z,2.30
2023-05-10T13:06:00.995Z,2.40
2023-05-10T13:08:34.311Z,2.50
2023-05-10T13:11:02.627Z,2.33
2023-05-10T13:13:30.577Z,2.00
2023-05-10T13:15:58.558Z,2.57
2023-05-10T13:18:27.397Z,2.90
2023-05-10T13:20:56.806Z,2.70
2023-05-10T13:23:26.167Z,2.40
2023-05-10T13:25:54.155Z,2.40
2023-05-10T13:28:22.158Z,2.17
2023-05-10T13:30:50.120Z,2.30
2023-05-10T13:33:18.079Z,2.80
2023-05-10T13:35:46.226Z,2.80
2023-05-10T13:38:14.950Z,2.60
2023-05-10T13:40:44.460Z,2.07
2023-05-10T13:43:12.478Z,2.50
2023-05-10T13:45:40.721Z,2.53
2023-05-10T13:48:08.756Z,2.10
2023-05-10T13:50:36.733Z,2.30
2023-05-10T13:53:04.972Z,2.60
2023-05-10T13:55:32.988Z,2.60
2023-05-10T13:58:02.457Z,2.40
2023-05-10T14:00:30.458Z,2.17
2023-05-10T14:02:58.641Z,2.50
2023-05-10T14:05:26.946Z,3.00
2023-05-10T14:07:55.102Z,3.00
2023-05-10T14:10:23.382Z,2.50
2023-05-10T14:12:51.820Z,2.20
2023-05-10T14:15:24.436Z,2.93
2023-05-10T14:17:52.699Z,2.40
2023-05-10T14:20:20.690Z,2.30
2023-05-10T14:22:48.611Z,2.47
2023-05-10T14:25:16.910Z,2.10
2023-05-10T14:27:45.128Z,2.33
2023-05-10T14:30:14.627Z,2.40
2023-05-10T14:32:44.027Z,2.20
2023-05-10T14:35:13.189Z,2.63
2023-05-10T14:37:41.676Z,3.90
2023-05-10T14:40:10.923Z,4.87
2023-05-10T14:42:38.935Z,3.27
2023-05-10T14:45:07.911Z,2.87
2023-05-10T14:47:35.889Z,2.70
2023-05-10T14:50:05.714Z,3.00
2023-05-10T14:52:34.364Z,3.00
2023-05-10T14:55:02.488Z,2.10
2023-05-10T14:57:30.761Z,2.70
2023-05-10T14:59:58.804Z,2.60
2023-05-10T15:02:27.204Z,2.57
2023-05-10T15:04:55.727Z,2.00
2023-05-10T15:07:25.650Z,3.03
2023-05-10T15:09:56.510Z,2.43
2023-05-10T15:12:24.532Z,2.63
2023-05-10T15:14:52.618Z,3.10
2023-05-10T15:17:20.534Z,2.40
2023-05-10T15:19:50.114Z,3.13
2023-05-10T15:22:18.080Z,2.67
2023-05-10T15:24:47.447Z,2.23
2023-05-10T15:27:15.461Z,2.30
2023-05-10T15:29:43.417Z,2.70
2023-05-10T15:32:11.402Z,2.90
2023-05-10T15:34:39.318Z,2.60
2023-05-10T15:37:07.305Z,2.00
2023-05-10T15:39:35.348Z,2.40
2023-05-10T15:42:05.043Z,3.53
2023-05-10T15:44:34.642Z,3.60
2023-05-10T15:47:02.810Z,2.80
2023-05-10T15:49:30.854Z,2.50
2023-05-10T15:51:58.796Z,2.87
2023-05-10T15:54:26.919Z,2.13
2023-05-10T15:56:55.219Z,2.87
2023-05-10T15:59:24.526Z,2.00
2023-05-10T16:01:52.701Z,2.90
2023-05-10T16:04:20.947Z,2.33
2023-05-10T16:06:48.866Z,2.03
2023-05-10T16:09:17.127Z,2.60
2023-05-10T16:11:45.082Z,2.30
2023-05-10T16:14:13.069Z,2.30
2023-05-10T16:16:43.224Z,2.07
2023-05-10T16:19:11.233Z,2.20
2023-05-10T16:21:39.276Z,2.43
2023-05-10T16:24:07.435Z,2.90
2023-05-10T16:26:40.642Z,2.40
2023-05-10T16:29:08.707Z,2.10
2023-05-10T16:31:36.821Z,2.40
2023-05-10T16:34:06.343Z,1.60
2023-05-10T16:36:34.397Z,2.50
2023-05-10T16:39:03.813Z,2.43
2023-05-10T16:41:34.407Z,2.37
2023-05-10T16:44:02.409Z,2.37
2023-05-10T16:46:30.617Z,1.97
2023-05-10T16:48:59.872Z,2.30
2023-05-10T16:51:29.303Z,2.30
2023-05-10T16:53:57.325Z,2.53
2023-05-10T16:56:25.331Z,2.47
2023-05-10T16:58:54.004Z,2.10
2023-05-10T17:01:23.206Z,1.93
2023-05-10T17:03:52.381Z,2.10
2023-05-10T17:06:20.402Z,1.90
2023-05-10T17:08:49.724Z,2.10
2023-05-10T17:11:19.882Z,2.20
2023-05-10T17:13:47.951Z,2.40
2023-05-10T17:16:15.975Z,1.80
2023-05-10T17:18:45.820Z,1.90
2023-05-10T17:21:13.873Z,2.17
2023-05-10T17:23:41.851Z,2.07
2023-05-10T17:26:14.124Z,2.57
2023-05-10T17:28:42.179Z,2.37
2023-05-10T17:31:10.351Z,2.10
2023-05-10T17:33:38.739Z,1.87
2023-05-10T17:36:07.098Z,2.40
2023-05-10T17:38:35.048Z,2.13
2023-05-10T17:41:03.044Z,2.17
2023-05-10T17:43:32.719Z,2.10
2023-05-10T17:46:00.667Z,2.10
2023-05-10T17:48:28.626Z,2.00
2023-05-10T17:50:56.604Z,2.40
2023-05-10T17:53:24.524Z,2.80
2023-05-10T17:55:52.769Z,3.00
2023-05-10T17:58:21.346Z,2.10
2023-05-10T18:00:50.772Z,2.30
2023-05-10T18:03:18.686Z,2.40
2023-05-10T18:05:46.882Z,1.87
2023-05-10T18:08:15.255Z,2.30
2023-05-10T18:10:43.289Z,2.07
2023-05-10T18:13:11.262Z,1.80
2023-05-10T18:15:39.271Z,1.67
2023-05-10T18:18:08.886Z,2.50
2023-05-10T18:20:36.983Z,2.63
2023-05-10T18:23:05.287Z,1.90
2023-05-10T18:25:33.250Z,2.53
2023-05-10T18:28:01.193Z,2.57
2023-05-10T18:30:29.218Z,2.20
2023-05-10T18:32:58.060Z,2.13
2023-05-10T18:35:27.375Z,2.17
2023-05-10T18:37:56.225Z,2.57
2023-05-10T18:40:24.242Z,2.33
2023-05-10T18:42:52.255Z,2.57
2023-05-10T18:45:20.454Z,2.50
2023-05-10T18:47:48.496Z,2.30
2023-05-10T18:50:17.714Z,2.50
2023-05-10T18:52:47.109Z,2.13
2023-05-10T18:55:15.522Z,2.50
2023-05-10T18:57:43.686Z,2.50
2023-05-10T19:00:12.770Z,2.10
2023-05-10T19:02:40.940Z,2.43
2023-05-10T19:05:09.842Z,1.97
2023-05-10T19:07:37.809Z,2.63
2023-05-10T19:10:08.315Z,2.20
2023-05-10T19:12:37.535Z,2.70
2023-05-10T19:15:06.290Z,2.80
2023-05-10T19:17:36.883Z,2.30
2023-05-10T19:20:06.843Z,2.20
2023-05-10T19:25:13.580Z,2.30
2023-05-10T19:27:41.669Z,2.60
2023-05-10T19:30:10.273Z,1.97
2023-05-10T19:32:38.292Z,1.80
2023-05-10T19:35:07.139Z,2.00
2023-05-10T19:37:35.112Z,2.03
2023-05-10T19:40:03.390Z,1.90
2023-05-10T19:42:32.827Z,1.53
2023-05-10T19:45:01.247Z,1.93
2023-05-10T19:47:29.201Z,2.00
2023-05-10T19:49:57.272Z,1.70
2023-05-10T19:52:25.360Z,2.13
2023-05-10T19:54:53.413Z,2.03
2023-05-10T19:57:21.611Z,1.93
2023-05-10T19:59:50.964Z,2.00
2023-05-10T20:02:19.003Z,1.60
2023-05-10T20:04:46.959Z,2.00
2023-05-10T20:07:14.895Z,1.83
2023-05-10T20:09:45.850Z,1.90
2023-05-10T20:12:13.908Z,2.00
2023-05-10T20:14:41.916Z,1.90
2023-05-10T20:17:11.217Z,1.70
2023-05-10T20:19:39.241Z,2.10
2023-05-10T20:22:09.343Z,2.37
2023-05-10T20:24:37.329Z,1.83
2023-05-10T20:27:05.380Z,1.70
2023-05-10T20:29:33.585Z,2.20
2023-05-10T20:32:01.411Z,1.70
2023-05-10T20:34:31.047Z,1.80
2023-05-10T20:36:59.176Z,2.03
2023-05-10T20:39:27.429Z,1.80
2023-05-10T20:41:55.424Z,1.90
2023-05-10T20:44:23.323Z,1.87
2023-05-10T20:46:51.428Z,2.33
2023-05-10T20:49:19.763Z,1.70
2023-05-10T20:51:49.229Z,2.47
2023-05-10T20:54:17.146Z,2.40
2023-05-10T20:56:45.054Z,2.87
2023-05-10T20:59:12.930Z,2.53
2023-05-10T21:01:40.991Z,2.43
2023-05-10T21:04:08.963Z,2.77
2023-05-10T21:06:37.305Z,2.20
2023-05-10T21:09:06.722Z,2.00
2023-05-10T21:11:38.450Z,2.30
2023-05-10T21:14:06.394Z,2.10
2023-05-10T21:16:34.453Z,3.00
2023-05-10T21:19:02.661Z,1.83
2023-05-10T21:21:31.037Z,2.27
2023-05-10T21:23:58.944Z,2.60
2023-05-10T21:26:28.717Z,2.10
2023-05-10T21:28:58.140Z,2.40
2023-05-10T21:31:26.171Z,1.70
2023-05-10T21:33:54.116Z,2.00
2023-05-10T21:36:22.152Z,2.30
2023-05-10T21:38:50.537Z,2.40
2023-05-10T21:41:18.434Z,1.90
2023-05-10T21:43:47.748Z,1.90
2023-05-10T21:46:15.671Z,2.07
2023-05-10T21:48:43.670Z,2.10
2023-05-10T21:51:12.010Z,2.10
2023-05-10T21:53:40.462Z,1.90
2023-05-10T21:56:08.588Z,1.93
2023-05-10T21:58:36.533Z,1.70
2023-05-10T22:01:06.120Z,1.83
2023-05-10T22:03:34.110Z,2.10
2023-05-10T22:06:02.075Z,1.63
2023-05-10T22:08:30.014Z,1.93
2023-05-10T22:10:57.913Z,1.60
2023-05-10T22:13:26.292Z,1.83
2023-05-10T22:15:54.274Z,2.23
2023-05-10T22:18:23.726Z,1.40
2023-05-10T22:20:51.666Z,1.80
2023-05-10T22:23:19.650Z,1.90
2023-05-10T22:25:47.560Z,1.60
2023-05-10T22:28:15.558Z,1.90
2023-05-10T22:30:43.468Z,1.70
2023-05-10T22:33:11.401Z,1.83
2023-05-10T22:35:40.765Z,1.80
2023-05-10T22:38:08.677Z,1.70
2023-05-10T22:40:36.687Z,1.63
2023-05-10T22:43:04.668Z,1.93
2023-05-10T22:45:32.609Z,1.93
2023-05-10T22:48:00.684Z,1.67
2023-05-10T22:50:29.365Z,2.07
2023-05-10T22:52:58.646Z,1.93
2023-05-10T22:55:26.559Z,2.03
2023-05-10T22:57:54.498Z,2.17
2023-05-10T23:00:22.645Z,1.83
2023-05-10T23:02:50.708Z,1.60
2023-05-10T23:05:19.274Z,2.20
2023-05-10T23:07:48.434Z,1.87
2023-05-10T23:10:18.106Z,1.60
2023-05-10T23:12:46.238Z,1.63
2023-05-10T23:15:14.119Z,1.90
2023-05-10T23:17:42.101Z,1.70
2023-05-10T23:20:11.253Z,1.70
2023-05-10T23:22:39.197Z,1.60
2023-05-10T23:25:08.204Z,1.70
2023-05-10T23:27:37.479Z,1.70
2023-05-10T23:30:05.980Z,1.73
2023-05-10T23:32:34.039Z,1.67
2023-05-10T23:35:02.111Z,1.90
2023-05-10T23:37:30.012Z,1.90
2023-05-10T23:39:57.948Z,1.40
2023-05-10T23:42:25.968Z,1.93
2023-05-10T23:44:55.411Z,2.00
2023-05-10T23:47:23.376Z,1.70
2023-05-10T23:49:51.340Z,1.60
2023-05-10T23:52:22.810Z,1.97
2023-05-10T23:54:50.702Z,1.50
2023-05-10T23:57:19.220Z,1.93
2023-05-10T23:59:47.378Z,1.40
